sensor_id;sensor_type;location;lat;lon;timestamp;P1;durP1;ratioP1;P2;durP2;ratioP2
11247;SDS011;5681;53.316;13.950;2022-07-06T00:01:53;3.25;;;1.10;;
11247;SDS011;5681;53.316;13.950;2022-07-06T00:04:20;4.50;;;1.33;;
11247;SDS011;5681;53.316;13.950;2022-07-06T00:06:46;2.38;;;1.02;;
11247;SDS011;5681;53.316;13.950;2022-07-06T00:09:13;4.13;;;1.33;;
11247;SDS011;5681;53.316;13.950;2022-07-06T00:11:39;2.67;;;1.00;;
11247;SDS011;5681;53.316;13.950;2022-07-06T00:14:07;3.00;;;1.30;;
11247;SDS011;5681;53.316;13.950;2022-07-06T00:16:33;4.13;;;1.10;;
11247;SDS011;5681;53.316;13.950;2022-07-06T00:19:00;3.33;;;1.10;;
11247;SDS011;5681;53.316;13.950;2022-07-06T00:21:26;5.18;;;1.35;;
11247;SDS011;5681;53.316;13.950;2022-07-06T00:23:53;4.25;;;1.20;;
11247;SDS011;5681;53.316;13.950;2022-07-06T00:26:19;3.78;;;1.10;;
11247;SDS011;5681;53.316;13.950;2022-07-06T00:28:46;4.50;;;1.30;;
11247;SDS011;5681;53.316;13.950;2022-07-06T00:31:13;5.53;;;2.00;;
11247;SDS011;5681;53.316;13.950;2022-07-06T00:33:40;3.55;;;1.30;;
11247;SDS011;5681;53.316;13.950;2022-07-06T00:36:06;2.53;;;1.25;;
11247;SDS011;5681;53.316;13.950;2022-07-06T00:38:33;8.18;;;1.40;;
11247;SDS011;5681;53.316;13.950;2022-07-06T00:40:59;4.75;;;1.10;;
11247;SDS011;5681;53.316;13.950;2022-07-06T00:43:25;3.47;;;1.23;;
11247;SDS011;5681;53.316;13.950;2022-07-06T00:45:52;5.38;;;1.30;;
11247;SDS011;5681;53.316;13.950;2022-07-06T00:48:19;4.18;;;1.70;;
11247;SDS011;5681;53.316;13.950;2022-07-06T00:50:46;2.58;;;1.33;;
11247;SDS011;5681;53.316;13.950;2022-07-06T00:53:12;4.07;;;1.20;;
11247;SDS011;5681;53.316;13.950;2022-07-06T00:55:39;2.28;;;1.15;;
11247;SDS011;5681;53.316;13.950;2022-07-06T00:58:06;4.75;;;1.25;;
11247;SDS011;5681;53.316;13.950;2022-07-06T01:00:33;3.65;;;1.38;;
11247;SDS011;5681;53.316;13.950;2022-07-06T01:02:59;2.92;;;1.00;;
11247;SDS011;5681;53.316;13.950;2022-07-06T01:05:28;7.32;;;1.48;;
11247;SDS011;5681;53.316;13.950;2022-07-06T01:07:54;3.08;;;0.95;;
11247;SDS011;5681;53.316;13.950;2022-07-06T01:10:22;6.22;;;1.77;;
11247;SDS011;5681;53.316;13.950;2022-07-06T01:12:48;2.83;;;1.20;;
11247;SDS011;5681;53.316;13.950;2022-07-06T01:15:16;2.30;;;1.30;;
11247;SDS011;5681;53.316;13.950;2022-07-06T01:17:43;4.35;;;1.20;;
11247;SDS011;5681;53.316;13.950;2022-07-06T01:20:12;4.68;;;1.33;;
11247;SDS011;5681;53.316;13.950;2022-07-06T01:22:38;3.53;;;1.13;;
11247;SDS011;5681;53.316;13.950;2022-07-06T01:25:05;3.10;;;1.27;;
11247;SDS011;5681;53.316;13.950;2022-07-06T01:27:33;3.58;;;1.25;;
11247;SDS011;5681;53.316;13.950;2022-07-06T01:30:02;3.92;;;1.27;;
11247;SDS011;5681;53.316;13.950;2022-07-06T01:32:29;3.05;;;0.95;;
11247;SDS011;5681;53.316;13.950;2022-07-06T01:34:56;7.45;;;1.52;;
11247;SDS011;5681;53.316;13.950;2022-07-06T01:37:23;4.13;;;1.40;;
11247;SDS011;5681;53.316;13.950;2022-07-06T01:39:50;9.27;;;1.67;;
11247;SDS011;5681;53.316;13.950;2022-07-06T01:42:16;5.53;;;1.20;;
11247;SDS011;5681;53.316;13.950;2022-07-06T01:44:43;2.30;;;1.02;;
11247;SDS011;5681;53.316;13.950;2022-07-06T01:47:10;6.38;;;1.30;;
11247;SDS011;5681;53.316;13.950;2022-07-06T01:49:36;4.65;;;1.30;;
11247;SDS011;5681;53.316;13.950;2022-07-06T01:52:03;1.83;;;0.90;;
11247;SDS011;5681;53.316;13.950;2022-07-06T01:54:30;5.40;;;1.30;;
11247;SDS011;5681;53.316;13.950;2022-07-06T01:56:57;3.67;;;1.30;;
11247;SDS011;5681;53.316;13.950;2022-07-06T01:59:23;6.18;;;1.20;;
11247;SDS011;5681;53.316;13.950;2022-07-06T02:01:49;3.92;;;1.33;;
11247;SDS011;5681;53.316;13.950;2022-07-06T02:04:16;5.22;;;1.70;;
11247;SDS011;5681;53.316;13.950;2022-07-06T02:06:42;5.15;;;1.40;;
11247;SDS011;5681;53.316;13.950;2022-07-06T02:09:08;7.07;;;1.58;;
11247;SDS011;5681;53.316;13.950;2022-07-06T02:11:36;3.53;;;1.40;;
11247;SDS011;5681;53.316;13.950;2022-07-06T02:14:02;4.10;;;1.25;;
11247;SDS011;5681;53.316;13.950;2022-07-06T02:16:29;2.97;;;1.10;;
11247;SDS011;5681;53.316;13.950;2022-07-06T02:18:55;5.47;;;1.35;;
11247;SDS011;5681;53.316;13.950;2022-07-06T02:21:22;3.75;;;1.40;;
11247;SDS011;5681;53.316;13.950;2022-07-06T02:23:48;6.00;;;1.65;;
11247;SDS011;5681;53.316;13.950;2022-07-06T02:26:15;5.75;;;1.40;;
11247;SDS011;5681;53.316;13.950;2022-07-06T02:28:42;4.18;;;1.30;;
11247;SDS011;5681;53.316;13.950;2022-07-06T02:31:10;5.97;;;1.30;;
11247;SDS011;5681;53.316;13.950;2022-07-06T02:33:38;3.42;;;1.35;;
11247;SDS011;5681;53.316;13.950;2022-07-06T02:36:04;2.38;;;1.30;;
11247;SDS011;5681;53.316;13.950;2022-07-06T02:38:31;2.67;;;1.20;;
11247;SDS011;5681;53.316;13.950;2022-07-06T02:40:57;5.10;;;1.50;;
11247;SDS011;5681;53.316;13.950;2022-07-06T02:43:24;5.90;;;1.23;;
11247;SDS011;5681;53.316;13.950;2022-07-06T02:45:51;5.60;;;1.48;;
11247;SDS011;5681;53.316;13.950;2022-07-06T02:48:18;3.92;;;1.50;;
11247;SDS011;5681;53.316;13.950;2022-07-06T02:50:46;3.90;;;1.33;;
11247;SDS011;5681;53.316;13.950;2022-07-06T02:53:12;4.60;;;1.33;;
11247;SDS011;5681;53.316;13.950;2022-07-06T02:55:39;2.50;;;1.20;;
11247;SDS011;5681;53.316;13.950;2022-07-06T02:58:05;4.10;;;1.30;;
11247;SDS011;5681;53.316;13.950;2022-07-06T03:00:31;5.72;;;1.45;;
11247;SDS011;5681;53.316;13.950;2022-07-06T03:02:59;4.55;;;1.42;;
11247;SDS011;5681;53.316;13.950;2022-07-06T03:05:26;6.60;;;1.40;;
11247;SDS011;5681;53.316;13.950;2022-07-06T03:07:52;2.67;;;1.30;;
11247;SDS011;5681;53.316;13.950;2022-07-06T03:10:18;3.95;;;1.58;;
11247;SDS011;5681;53.316;13.950;2022-07-06T03:12:45;2.92;;;1.40;;
11247;SDS011;5681;53.316;13.950;2022-07-06T03:15:11;5.97;;;1.48;;
11247;SDS011;5681;53.316;13.950;2022-07-06T03:17:37;5.07;;;1.50;;
11247;SDS011;5681;53.316;13.950;2022-07-06T03:20:06;5.50;;;1.55;;
11247;SDS011;5681;53.316;13.950;2022-07-06T03:22:33;8.02;;;1.38;;
11247;SDS011;5681;53.316;13.950;2022-07-06T03:24:59;4.72;;;1.35;;
11247;SDS011;5681;53.316;13.950;2022-07-06T03:27:26;2.67;;;1.20;;
11247;SDS011;5681;53.316;13.950;2022-07-06T03:29:52;6.00;;;1.40;;
11247;SDS011;5681;53.316;13.950;2022-07-06T03:32:18;4.63;;;1.30;;
11247;SDS011;5681;53.316;13.950;2022-07-06T03:34:44;6.47;;;1.63;;
11247;SDS011;5681;53.316;13.950;2022-07-06T03:37:12;8.43;;;1.50;;
11247;SDS011;5681;53.316;13.950;2022-07-06T03:39:38;6.18;;;1.45;;
11247;SDS011;5681;53.316;13.950;2022-07-06T03:42:05;3.90;;;1.38;;
11247;SDS011;5681;53.316;13.950;2022-07-06T03:44:31;5.30;;;1.15;;
11247;SDS011;5681;53.316;13.950;2022-07-06T03:46:58;3.70;;;1.23;;
11247;SDS011;5681;53.316;13.950;2022-07-06T03:49:24;5.85;;;1.42;;
11247;SDS011;5681;53.316;13.950;2022-07-06T03:51:52;5.68;;;1.60;;
11247;SDS011;5681;53.316;13.950;2022-07-06T03:54:20;3.67;;;1.50;;
11247;SDS011;5681;53.316;13.950;2022-07-06T03:56:46;5.13;;;1.88;;
11247;SDS011;5681;53.316;13.950;2022-07-06T03:59:13;4.30;;;1.60;;
11247;SDS011;5681;53.316;13.950;2022-07-06T04:01:39;3.80;;;1.30;;
11247;SDS011;5681;53.316;13.950;2022-07-06T04:04:06;7.40;;;1.58;;
11247;SDS011;5681;53.316;13.950;2022-07-06T04:06:32;4.03;;;1.30;;
11247;SDS011;5681;53.316;13.950;2022-07-06T04:08:59;6.28;;;1.42;;
11247;SDS011;5681;53.316;13.950;2022-07-06T04:11:27;3.92;;;1.30;;
11247;SDS011;5681;53.316;13.950;2022-07-06T04:13:53;4.50;;;1.50;;
11247;SDS011;5681;53.316;13.950;2022-07-06T04:16:20;4.13;;;1.60;;
11247;SDS011;5681;53.316;13.950;2022-07-06T04:18:46;6.43;;;1.73;;
11247;SDS011;5681;53.316;13.950;2022-07-06T04:21:13;6.53;;;1.92;;
11247;SDS011;5681;53.316;13.950;2022-07-06T04:23:39;5.13;;;1.30;;
11247;SDS011;5681;53.316;13.950;2022-07-06T04:26:05;5.57;;;1.52;;
11247;SDS011;5681;53.316;13.950;2022-07-06T04:28:33;5.65;;;1.77;;
11247;SDS011;5681;53.316;13.950;2022-07-06T04:31:00;8.40;;;1.85;;
11247;SDS011;5681;53.316;13.950;2022-07-06T04:33:26;5.60;;;1.60;;
11247;SDS011;5681;53.316;13.950;2022-07-06T04:35:52;7.15;;;1.63;;
11247;SDS011;5681;53.316;13.950;2022-07-06T04:38:19;3.92;;;1.33;;
11247;SDS011;5681;53.316;13.950;2022-07-06T04:40:45;7.38;;;1.73;;
11247;SDS011;5681;53.316;13.950;2022-07-06T04:43:12;3.90;;;1.35;;
11247;SDS011;5681;53.316;13.950;2022-07-06T04:45:40;10.00;;;1.98;;
11247;SDS011;5681;53.316;13.950;2022-07-06T04:48:06;8.75;;;2.22;;
11247;SDS011;5681;53.316;13.950;2022-07-06T04:50:33;3.97;;;1.45;;
11247;SDS011;5681;53.316;13.950;2022-07-06T04:52:59;7.13;;;1.75;;
11247;SDS011;5681;53.316;13.950;2022-07-06T04:55:26;4.88;;;1.80;;
11247;SDS011;5681;53.316;13.950;2022-07-06T04:57:52;9.07;;;1.52;;
11247;SDS011;5681;53.316;13.950;2022-07-06T05:00:20;5.75;;;1.77;;
11247;SDS011;5681;53.316;13.950;2022-07-06T05:02:47;4.88;;;1.90;;
11247;SDS011;5681;53.316;13.950;2022-07-06T05:05:14;6.25;;;1.60;;
11247;SDS011;5681;53.316;13.950;2022-07-06T05:07:40;6.18;;;1.67;;
11247;SDS011;5681;53.316;13.950;2022-07-06T05:10:07;3.10;;;1.42;;
11247;SDS011;5681;53.316;13.950;2022-07-06T05:12:34;6.18;;;1.58;;
11247;SDS011;5681;53.316;13.950;2022-07-06T05:15:01;10.73;;;1.80;;
11247;SDS011;5681;53.316;13.950;2022-07-06T05:17:27;5.75;;;1.60;;
11247;SDS011;5681;53.316;13.950;2022-07-06T05:19:55;5.85;;;1.30;;
11247;SDS011;5681;53.316;13.950;2022-07-06T05:22:22;9.32;;;1.70;;
11247;SDS011;5681;53.316;13.950;2022-07-06T05:24:49;5.18;;;1.30;;
11247;SDS011;5681;53.316;13.950;2022-07-06T05:27:15;6.22;;;1.48;;
11247;SDS011;5681;53.316;13.950;2022-07-06T05:29:42;5.10;;;1.50;;
11247;SDS011;5681;53.316;13.950;2022-07-06T05:32:08;7.05;;;1.48;;
11247;SDS011;5681;53.316;13.950;2022-07-06T05:34:34;5.53;;;1.40;;
11247;SDS011;5681;53.316;13.950;2022-07-06T05:37:03;6.80;;;1.50;;
11247;SDS011;5681;53.316;13.950;2022-07-06T05:39:29;7.03;;;1.55;;
11247;SDS011;5681;53.316;13.950;2022-07-06T05:41:55;4.45;;;1.40;;
11247;SDS011;5681;53.316;13.950;2022-07-06T05:44:22;6.07;;;1.30;;
11247;SDS011;5681;53.316;13.950;2022-07-06T05:46:48;8.70;;;1.40;;
11247;SDS011;5681;53.316;13.950;2022-07-06T05:49:14;4.43;;;1.30;;
11247;SDS011;5681;53.316;13.950;2022-07-06T05:51:58;6.80;;;1.30;;
11247;SDS011;5681;53.316;13.950;2022-07-06T05:54:25;6.95;;;1.50;;
11247;SDS011;5681;53.316;13.950;2022-07-06T05:56:52;5.10;;;1.30;;
11247;SDS011;5681;53.316;13.950;2022-07-06T05:59:18;6.32;;;1.00;;
11247;SDS011;5681;53.316;13.950;2022-07-06T06:01:44;3.70;;;1.30;;
11247;SDS011;5681;53.316;13.950;2022-07-06T06:04:11;2.90;;;0.93;;
11247;SDS011;5681;53.316;13.950;2022-07-06T06:06:37;5.28;;;1.30;;
11247;SDS011;5681;53.316;13.950;2022-07-06T06:09:03;6.07;;;1.15;;
11247;SDS011;5681;53.316;13.950;2022-07-06T06:11:31;4.88;;;1.42;;
11247;SDS011;5681;53.316;13.950;2022-07-06T06:13:57;4.93;;;1.15;;
11247;SDS011;5681;53.316;13.950;2022-07-06T06:16:24;3.45;;;1.10;;
11247;SDS011;5681;53.316;13.950;2022-07-06T06:18:50;5.07;;;1.30;;
11247;SDS011;5681;53.316;13.950;2022-07-06T06:21:16;6.15;;;1.27;;
11247;SDS011;5681;53.316;13.950;2022-07-06T06:23:43;4.45;;;1.15;;
11247;SDS011;5681;53.316;13.950;2022-07-06T06:26:09;3.20;;;1.10;;
11247;SDS011;5681;53.316;13.950;2022-07-06T06:28:37;2.42;;;1.00;;
11247;SDS011;5681;53.316;13.950;2022-07-06T06:31:03;4.78;;;0.98;;
11247;SDS011;5681;53.316;13.950;2022-07-06T06:33:30;7.38;;;1.40;;
11247;SDS011;5681;53.316;13.950;2022-07-06T06:35:56;5.45;;;1.27;;
11247;SDS011;5681;53.316;13.950;2022-07-06T06:38:23;3.60;;;1.17;;
11247;SDS011;5681;53.316;13.950;2022-07-06T06:40:51;3.90;;;1.20;;
11247;SDS011;5681;53.316;13.950;2022-07-06T06:43:17;6.57;;;1.33;;
11247;SDS011;5681;53.316;13.950;2022-07-06T06:45:45;3.08;;;1.23;;
11247;SDS011;5681;53.316;13.950;2022-07-06T06:48:11;2.10;;;0.95;;
11247;SDS011;5681;53.316;13.950;2022-07-06T06:50:38;3.65;;;0.82;;
11247;SDS011;5681;53.316;13.950;2022-07-06T06:53:04;4.65;;;0.90;;
11247;SDS011;5681;53.316;13.950;2022-07-06T06:55:30;3.67;;;1.20;;
11247;SDS011;5681;53.316;13.950;2022-07-06T06:57:57;7.80;;;1.30;;
11247;SDS011;5681;53.316;13.950;2022-07-06T07:00:23;8.07;;;1.15;;
11247;SDS011;5681;53.316;13.950;2022-07-06T07:02:51;3.25;;;0.88;;
11247;SDS011;5681;53.316;13.950;2022-07-06T07:05:17;2.17;;;0.80;;
11247;SDS011;5681;53.316;13.950;2022-07-06T07:07:43;2.88;;;0.80;;
11247;SDS011;5681;53.316;13.950;2022-07-06T07:10:10;4.07;;;1.23;;
11247;SDS011;5681;53.316;13.950;2022-07-06T07:12:41;1.90;;;0.77;;
11247;SDS011;5681;53.316;13.950;2022-07-06T07:15:09;2.10;;;0.85;;
11247;SDS011;5681;53.316;13.950;2022-07-06T07:17:35;4.75;;;0.90;;
11247;SDS011;5681;53.316;13.950;2022-07-06T07:20:03;5.03;;;1.23;;
11247;SDS011;5681;53.316;13.950;2022-07-06T07:22:30;6.82;;;1.15;;
11247;SDS011;5681;53.316;13.950;2022-07-06T07:24:57;3.30;;;1.00;;
11247;SDS011;5681;53.316;13.950;2022-07-06T07:27:23;2.50;;;0.70;;
11247;SDS011;5681;53.316;13.950;2022-07-06T07:29:50;2.40;;;0.90;;
11247;SDS011;5681;53.316;13.950;2022-07-06T07:32:16;3.10;;;0.82;;
11247;SDS011;5681;53.316;13.950;2022-07-06T07:34:43;4.20;;;0.80;;
11247;SDS011;5681;53.316;13.950;2022-07-06T07:37:11;4.97;;;1.42;;
11247;SDS011;5681;53.316;13.950;2022-07-06T07:39:37;3.75;;;0.80;;
11247;SDS011;5681;53.316;13.950;2022-07-06T07:42:04;2.80;;;0.60;;
11247;SDS011;5681;53.316;13.950;2022-07-06T07:44:30;5.38;;;0.80;;
11247;SDS011;5681;53.316;13.950;2022-07-06T07:46:57;2.15;;;0.82;;
11247;SDS011;5681;53.316;13.950;2022-07-06T07:49:23;1.83;;;0.80;;
11247;SDS011;5681;53.316;13.950;2022-07-06T07:51:50;3.20;;;0.85;;
11247;SDS011;5681;53.316;13.950;2022-07-06T07:54:17;3.28;;;0.90;;
11247;SDS011;5681;53.316;13.950;2022-07-06T07:56:44;2.92;;;0.88;;
11247;SDS011;5681;53.316;13.950;2022-07-06T07:59:10;2.60;;;0.73;;
11247;SDS011;5681;53.316;13.950;2022-07-06T08:01:36;4.25;;;0.80;;
11247;SDS011;5681;53.316;13.950;2022-07-06T08:04:03;5.47;;;0.88;;
11247;SDS011;5681;53.316;13.950;2022-07-06T08:06:29;2.00;;;0.60;;
11247;SDS011;5681;53.316;13.950;2022-07-06T08:08:56;5.82;;;0.70;;
11247;SDS011;5681;53.316;13.950;2022-07-06T08:11:23;1.83;;;0.80;;
11247;SDS011;5681;53.316;13.950;2022-07-06T08:13:50;2.78;;;0.60;;
11247;SDS011;5681;53.316;13.950;2022-07-06T08:16:16;2.88;;;0.80;;
11247;SDS011;5681;53.316;13.950;2022-07-06T08:18:43;2.83;;;0.95;;
11247;SDS011;5681;53.316;13.950;2022-07-06T08:21:09;1.85;;;0.80;;
11247;SDS011;5681;53.316;13.950;2022-07-06T08:23:36;2.67;;;0.80;;
11247;SDS011;5681;53.316;13.950;2022-07-06T08:26:02;3.00;;;0.57;;
11247;SDS011;5681;53.316;13.950;2022-07-06T08:28:31;5.63;;;1.30;;
11247;SDS011;5681;53.316;13.950;2022-07-06T08:30:57;2.28;;;0.70;;
11247;SDS011;5681;53.316;13.950;2022-07-06T08:33:24;2.70;;;0.98;;
11247;SDS011;5681;53.316;13.950;2022-07-06T08:35:50;2.17;;;0.70;;
11247;SDS011;5681;53.316;13.950;2022-07-06T08:38:17;4.07;;;0.80;;
11247;SDS011;5681;53.316;13.950;2022-07-06T08:40:43;2.80;;;0.70;;
11247;SDS011;5681;53.316;13.950;2022-07-06T08:43:13;2.97;;;0.80;;
11247;SDS011;5681;53.316;13.950;2022-07-06T08:45:41;2.03;;;0.80;;
11247;SDS011;5681;53.316;13.950;2022-07-06T08:48:09;1.20;;;0.60;;
11247;SDS011;5681;53.316;13.950;2022-07-06T08:50:36;1.23;;;0.45;;
11247;SDS011;5681;53.316;13.950;2022-07-06T08:53:03;1.92;;;0.70;;
11247;SDS011;5681;53.316;13.950;2022-07-06T08:55:30;1.52;;;0.63;;
11247;SDS011;5681;53.316;13.950;2022-07-06T08:57:57;4.18;;;0.82;;
11247;SDS011;5681;53.316;13.950;2022-07-06T09:00:24;2.45;;;1.02;;
11247;SDS011;5681;53.316;13.950;2022-07-06T09:02:52;2.80;;;0.50;;
11247;SDS011;5681;53.316;13.950;2022-07-06T09:05:22;2.40;;;0.77;;
11247;SDS011;5681;53.316;13.950;2022-07-06T09:07:49;2.80;;;0.60;;
11247;SDS011;5681;53.316;13.950;2022-07-06T09:10:16;3.72;;;0.65;;
11247;SDS011;5681;53.316;13.950;2022-07-06T09:12:44;2.60;;;0.77;;
11247;SDS011;5681;53.316;13.950;2022-07-06T09:15:10;5.03;;;1.13;;
11247;SDS011;5681;53.316;13.950;2022-07-06T09:17:37;3.85;;;1.02;;
11247;SDS011;5681;53.316;13.950;2022-07-06T09:20:07;1.48;;;0.77;;
11247;SDS011;5681;53.316;13.950;2022-07-06T09:22:34;3.17;;;0.70;;
11247;SDS011;5681;53.316;13.950;2022-07-06T09:25:02;2.42;;;0.70;;
11247;SDS011;5681;53.316;13.950;2022-07-06T09:27:30;1.17;;;0.63;;
11247;SDS011;5681;53.316;13.950;2022-07-06T09:29:59;2.35;;;0.85;;
11247;SDS011;5681;53.316;13.950;2022-07-06T09:32:25;1.20;;;0.60;;
11247;SDS011;5681;53.316;13.950;2022-07-06T09:34:52;1.50;;;0.73;;
11247;SDS011;5681;53.316;13.950;2022-07-06T09:37:21;1.55;;;0.57;;
11247;SDS011;5681;53.316;13.950;2022-07-06T09:39:47;1.90;;;0.82;;
11247;SDS011;5681;53.316;13.950;2022-07-06T09:42:14;2.15;;;0.77;;
11247;SDS011;5681;53.316;13.950;2022-07-06T09:44:40;4.47;;;0.98;;
11247;SDS011;5681;53.316;13.950;2022-07-06T09:47:07;2.33;;;0.80;;
11247;SDS011;5681;53.316;13.950;2022-07-06T09:49:35;1.70;;;0.68;;
11247;SDS011;5681;53.316;13.950;2022-07-06T09:52:03;1.48;;;0.63;;
11247;SDS011;5681;53.316;13.950;2022-07-06T09:54:32;1.85;;;0.73;;
11247;SDS011;5681;53.316;13.950;2022-07-06T09:56:59;1.80;;;0.63;;
11247;SDS011;5681;53.316;13.950;2022-07-06T09:59:26;2.50;;;1.00;;
11247;SDS011;5681;53.316;13.950;2022-07-06T10:01:53;2.67;;;0.70;;
11247;SDS011;5681;53.316;13.950;2022-07-06T10:04:21;3.15;;;0.70;;
11247;SDS011;5681;53.316;13.950;2022-07-06T10:06:48;2.10;;;0.60;;
11247;SDS011;5681;53.316;13.950;2022-07-06T10:09:15;2.05;;;0.77;;
11247;SDS011;5681;53.316;13.950;2022-07-06T10:11:43;1.00;;;0.50;;
11247;SDS011;5681;53.316;13.950;2022-07-06T10:14:11;2.22;;;0.60;;
11247;SDS011;5681;53.316;13.950;2022-07-06T10:16:38;2.38;;;0.70;;
11247;SDS011;5681;53.316;13.950;2022-07-06T10:19:05;3.33;;;0.82;;
11247;SDS011;5681;53.316;13.950;2022-07-06T10:21:33;4.63;;;0.95;;
11247;SDS011;5681;53.316;13.950;2022-07-06T10:24:02;2.50;;;0.75;;
11247;SDS011;5681;53.316;13.950;2022-07-06T10:26:29;2.90;;;0.82;;
11247;SDS011;5681;53.316;13.950;2022-07-06T10:28:58;2.10;;;0.85;;
11247;SDS011;5681;53.316;13.950;2022-07-06T10:31:24;3.05;;;0.90;;
11247;SDS011;5681;53.316;13.950;2022-07-06T10:33:51;2.67;;;0.88;;
11247;SDS011;5681;53.316;13.950;2022-07-06T10:36:18;4.28;;;0.98;;
11247;SDS011;5681;53.316;13.950;2022-07-06T10:38:46;1.63;;;0.60;;
11247;SDS011;5681;53.316;13.950;2022-07-06T10:41:15;5.07;;;1.00;;
11247;SDS011;5681;53.316;13.950;2022-07-06T10:43:42;1.60;;;0.70;;
11247;SDS011;5681;53.316;13.950;2022-07-06T10:46:11;3.78;;;1.08;;
11247;SDS011;5681;53.316;13.950;2022-07-06T10:48:38;2.33;;;0.60;;
11247;SDS011;5681;53.316;13.950;2022-07-06T10:51:05;2.30;;;0.68;;
11247;SDS011;5681;53.316;13.950;2022-07-06T10:53:33;5.00;;;0.80;;
11247;SDS011;5681;53.316;13.950;2022-07-06T10:56:01;2.45;;;0.70;;
11247;SDS011;5681;53.316;13.950;2022-07-06T10:58:36;6.63;;;1.02;;
11247;SDS011;5681;53.316;13.950;2022-07-06T11:01:05;3.88;;;1.15;;
11247;SDS011;5681;53.316;13.950;2022-07-06T11:03:34;1.77;;;0.70;;
11247;SDS011;5681;53.316;13.950;2022-07-06T11:06:05;2.42;;;0.80;;
11247;SDS011;5681;53.316;13.950;2022-07-06T11:11:24;7.10;;;1.02;;
11247;SDS011;5681;53.316;13.950;2022-07-06T11:13:52;3.70;;;0.80;;
11247;SDS011;5681;53.316;13.950;2022-07-06T11:16:21;3.90;;;0.80;;
11247;SDS011;5681;53.316;13.950;2022-07-06T11:18:50;2.97;;;0.70;;
11247;SDS011;5681;53.316;13.950;2022-07-06T11:21:32;3.25;;;0.80;;
11247;SDS011;5681;53.316;13.950;2022-07-06T11:23:59;2.42;;;0.65;;
11247;SDS011;5681;53.316;13.950;2022-07-06T11:26:26;2.08;;;0.85;;
11247;SDS011;5681;53.316;13.950;2022-07-06T11:28:53;4.45;;;1.08;;
11247;SDS011;5681;53.316;13.950;2022-07-06T11:31:19;1.75;;;0.60;;
11247;SDS011;5681;53.316;13.950;2022-07-06T11:33:46;2.42;;;0.75;;
11247;SDS011;5681;53.316;13.950;2022-07-06T11:36:15;4.47;;;0.93;;
11247;SDS011;5681;53.316;13.950;2022-07-06T11:38:42;1.88;;;0.60;;
11247;SDS011;5681;53.316;13.950;2022-07-06T11:41:10;6.07;;;0.70;;
11247;SDS011;5681;53.316;13.950;2022-07-06T11:43:38;4.55;;;1.08;;
11247;SDS011;5681;53.316;13.950;2022-07-06T11:46:17;4.22;;;1.10;;
11247;SDS011;5681;53.316;13.950;2022-07-06T11:48:47;4.28;;;1.13;;
11247;SDS011;5681;53.316;13.950;2022-07-06T11:51:14;10.85;;;1.10;;
11247;SDS011;5681;53.316;13.950;2022-07-06T11:53:42;5.30;;;0.80;;
11247;SDS011;5681;53.316;13.950;2022-07-06T11:56:09;2.80;;;0.77;;
11247;SDS011;5681;53.316;13.950;2022-07-06T11:58:36;2.03;;;0.80;;
11247;SDS011;5681;53.316;13.950;2022-07-06T12:01:05;4.55;;;1.15;;
11247;SDS011;5681;53.316;13.950;2022-07-06T12:03:32;4.93;;;0.77;;
11247;SDS011;5681;53.316;13.950;2022-07-06T12:05:59;4.25;;;0.80;;
11247;SDS011;5681;53.316;13.950;2022-07-06T12:08:27;5.28;;;0.90;;
11247;SDS011;5681;53.316;13.950;2022-07-06T12:10:54;2.33;;;0.60;;
11247;SDS011;5681;53.316;13.950;2022-07-06T12:13:20;1.65;;;0.60;;
11247;SDS011;5681;53.316;13.950;2022-07-06T12:15:47;1.75;;;0.70;;
11247;SDS011;5681;53.316;13.950;2022-07-06T12:18:13;3.33;;;0.80;;
11247;SDS011;5681;53.316;13.950;2022-07-06T12:20:39;4.03;;;0.90;;
11247;SDS011;5681;53.316;13.950;2022-07-06T12:23:06;2.85;;;0.57;;
11247;SDS011;5681;53.316;13.950;2022-07-06T12:25:35;4.70;;;0.80;;
11247;SDS011;5681;53.316;13.950;2022-07-06T12:28:03;3.90;;;0.77;;
11247;SDS011;5681;53.316;13.950;2022-07-06T12:30:30;5.05;;;1.05;;
11247;SDS011;5681;53.316;13.950;2022-07-06T12:33:15;7.55;;;0.88;;
11247;SDS011;5681;53.316;13.950;2022-07-06T12:35:43;2.47;;;0.80;;
11247;SDS011;5681;53.316;13.950;2022-07-06T12:38:09;2.25;;;0.70;;
11247;SDS011;5681;53.316;13.950;2022-07-06T12:40:37;2.25;;;1.05;;
11247;SDS011;5681;53.316;13.950;2022-07-06T12:43:04;2.78;;;0.98;;
11247;SDS011;5681;53.316;13.950;2022-07-06T12:45:34;7.85;;;1.13;;
11247;SDS011;5681;53.316;13.950;2022-07-06T12:48:01;2.45;;;0.90;;
11247;SDS011;5681;53.316;13.950;2022-07-06T12:50:30;7.20;;;1.27;;
11247;SDS011;5681;53.316;13.950;2022-07-06T12:52:58;7.22;;;0.88;;
11247;SDS011;5681;53.316;13.950;2022-07-06T12:55:25;2.65;;;0.73;;
11247;SDS011;5681;53.316;13.950;2022-07-06T12:57:54;4.32;;;0.75;;
11247;SDS011;5681;53.316;13.950;2022-07-06T13:00:20;4.38;;;0.90;;
11247;SDS011;5681;53.316;13.950;2022-07-06T13:02:48;2.63;;;0.75;;
11247;SDS011;5681;53.316;13.950;2022-07-06T13:05:21;2.97;;;0.75;;
11247;SDS011;5681;53.316;13.950;2022-07-06T13:07:52;1.80;;;0.57;;
11247;SDS011;5681;53.316;13.950;2022-07-06T13:10:19;3.30;;;0.85;;
11247;SDS011;5681;53.316;13.950;2022-07-06T13:12:46;2.03;;;0.63;;
11247;SDS011;5681;53.316;13.950;2022-07-06T13:15:13;6.22;;;0.80;;
11247;SDS011;5681;53.316;13.950;2022-07-06T13:17:40;5.13;;;0.80;;
11247;SDS011;5681;53.316;13.950;2022-07-06T13:20:08;4.97;;;0.70;;
11247;SDS011;5681;53.316;13.950;2022-07-06T13:22:36;1.60;;;0.90;;
11247;SDS011;5681;53.316;13.950;2022-07-06T13:25:03;2.25;;;0.70;;
11247;SDS011;5681;53.316;13.950;2022-07-06T13:27:30;4.22;;;0.90;;
11247;SDS011;5681;53.316;13.950;2022-07-06T13:29:57;3.55;;;0.90;;
11247;SDS011;5681;53.316;13.950;2022-07-06T13:32:24;2.17;;;0.77;;
11247;SDS011;5681;53.316;13.950;2022-07-06T13:34:51;5.68;;;1.23;;
11247;SDS011;5681;53.316;13.950;2022-07-06T13:37:18;4.22;;;0.85;;
11247;SDS011;5681;53.316;13.950;2022-07-06T13:39:45;6.65;;;1.13;;
11247;SDS011;5681;53.316;13.950;2022-07-06T13:42:12;8.20;;;1.00;;
11247;SDS011;5681;53.316;13.950;2022-07-06T13:44:38;4.40;;;0.73;;
11247;SDS011;5681;53.316;13.950;2022-07-06T13:47:04;3.72;;;0.80;;
11247;SDS011;5681;53.316;13.950;2022-07-06T13:49:32;3.45;;;0.80;;
11247;SDS011;5681;53.316;13.950;2022-07-06T13:51:58;7.47;;;1.17;;
11247;SDS011;5681;53.316;13.950;2022-07-06T13:54:28;2.80;;;0.95;;
11247;SDS011;5681;53.316;13.950;2022-07-06T13:56:54;3.22;;;0.88;;
11247;SDS011;5681;53.316;13.950;2022-07-06T13:59:21;2.35;;;0.70;;
11247;SDS011;5681;53.316;13.950;2022-07-06T14:01:51;4.68;;;0.80;;
11247;SDS011;5681;53.316;13.950;2022-07-06T14:04:17;2.40;;;0.75;;
11247;SDS011;5681;53.316;13.950;2022-07-06T14:06:45;4.13;;;0.90;;
11247;SDS011;5681;53.316;13.950;2022-07-06T14:09:11;2.60;;;0.95;;
11247;SDS011;5681;53.316;13.950;2022-07-06T14:11:37;3.45;;;0.82;;
11247;SDS011;5681;53.316;13.950;2022-07-06T14:14:04;2.42;;;0.80;;
11247;SDS011;5681;53.316;13.950;2022-07-06T14:16:32;2.60;;;0.60;;
11247;SDS011;5681;53.316;13.950;2022-07-06T14:19:00;2.78;;;0.90;;
11247;SDS011;5681;53.316;13.950;2022-07-06T14:21:26;5.65;;;1.20;;
11247;SDS011;5681;53.316;13.950;2022-07-06T14:23:54;7.88;;;0.95;;
11247;SDS011;5681;53.316;13.950;2022-07-06T14:26:21;3.85;;;0.65;;
11247;SDS011;5681;53.316;13.950;2022-07-06T14:28:47;5.65;;;0.70;;
11247;SDS011;5681;53.316;13.950;2022-07-06T14:31:14;2.65;;;0.82;;
11247;SDS011;5681;53.316;13.950;2022-07-06T14:33:41;4.07;;;1.00;;
11247;SDS011;5681;53.316;13.950;2022-07-06T14:36:07;2.58;;;0.75;;
11247;SDS011;5681;53.316;13.950;2022-07-06T14:38:34;4.15;;;0.70;;
11247;SDS011;5681;53.316;13.950;2022-07-06T14:41:01;2.67;;;0.70;;
11247;SDS011;5681;53.316;13.950;2022-07-06T14:43:28;1.35;;;0.60;;
11247;SDS011;5681;53.316;13.950;2022-07-06T14:45:54;3.00;;;0.90;;
11247;SDS011;5681;53.316;13.950;2022-07-06T14:48:21;2.78;;;0.80;;
11247;SDS011;5681;53.316;13.950;2022-07-06T14:50:47;4.82;;;0.80;;